Time;durP1;ratioP1;P1;durP2;ratioP2;P2;SDS_P1;SDS_P2;PMS_P1;PMS_P2;Temp;Humidity;BMP_temperature;BMP_pressure;BME280_temperature;BME280_humidity;BME280_pressure;Samples;Min_cycle;Max_cycle;Signal;HPM_P1;HPM_P2
2024/01/22 00:02:14;;;;;;;6.17;2.20;;;;;;;;;;5088675;28;20485;-67
2024/01/22 00:04:39;;;;;;;9.77;2.63;;;;;;;;;;5108563;27;20027;-66
2024/01/22 00:07:05;;;;;;;4.13;1.93;;;;;;;;;;5111666;27;20526;-66
2024/01/22 00:09:30;;;;;;;6.63;2.57;;;;;;;;;;5114977;27;20023;-66
2024/01/22 00:11:56;;;;;;;7.33;2.37;;;;;;;;;;5112770;27;20023;-67
2024/01/22 00:14:21;;;;;;;6.50;2.40;;;;;;;;;;5111996;27;20054;-66
2024/01/22 00:16:46;;;;;;;3.83;1.93;;;;;;;;;;5113370;27;20032;-67
2024/01/22 00:19:11;;;;;;;7.00;2.57;;;;;;;;;;5110386;27;20486;-67
2024/01/22 00:21:40;;;;;;;8.90;2.57;;;;;;;;;;5120304;27;20217;-66
2024/01/22 00:24:05;;;;;;;5.77;2.20;;;;;;;;;;5109682;28;20028;-67
2024/01/22 00:26:30;;;;;;;4.37;1.70;;;;;;;;;;5109977;27;20027;-66
2024/01/22 00:28:56;;;;;;;6.63;1.70;;;;;;;;;;5106498;27;20032;-67
2024/01/22 00:31:21;;;;;;;7.60;2.60;;;;;;;;;;5105241;27;20024;-66
2024/01/22 00:33:47;;;;;;;6.23;1.60;;;;;;;;;;5120298;27;20102;-66
2024/01/22 00:36:13;;;;;;;5.00;1.77;;;;;;;;;;5119426;27;20027;-66
2024/01/22 00:38:39;;;;;;;5.83;2.10;;;;;;;;;;5112339;27;20512;-67
2024/01/22 00:41:04;;;;;;;5.40;2.10;;;;;;;;;;5112748;27;20027;-66
2024/01/22 00:43:29;;;;;;;3.60;1.83;;;;;;;;;;5114904;27;20034;-66
2024/01/22 00:45:55;;;;;;;5.00;1.43;;;;;;;;;;5111649;27;20026;-66
2024/01/22 00:48:20;;;;;;;5.97;2.00;;;;;;;;;;5112491;27;20040;-67
2024/01/22 00:50:45;;;;;;;3.83;1.63;;;;;;;;;;5111137;27;20024;-67
2024/01/22 00:53:10;;;;;;;4.00;1.87;;;;;;;;;;5113681;27;20020;-67
2024/01/22 00:55:36;;;;;;;4.97;1.77;;;;;;;;;;5111353;27;20141;-67
2024/01/22 00:58:01;;;;;;;7.27;1.63;;;;;;;;;;5111664;27;20098;-68
2024/01/22 01:00:26;;;;;;;5.53;2.00;;;;;;;;;;5106492;27;20024;-67
2024/01/22 01:02:52;;;;;;;4.70;2.03;;;;;;;;;;5109143;27;20467;-67
2024/01/22 01:05:17;;;;;;;4.63;2.00;;;;;;;;;;5109062;27;20023;-68
2024/01/22 01:07:42;;;;;;;4.50;2.13;;;;;;;;;;5113544;27;20035;-67
2024/01/22 01:10:07;;;;;;;4.23;2.03;;;;;;;;;;5112667;27;20020;-66
2024/01/22 01:12:33;;;;;;;4.50;1.90;;;;;;;;;;5110163;27;20035;-66
2024/01/22 01:14:58;;;;;;;3.20;1.53;;;;;;;;;;5116725;27;20032;-67
2024/01/22 01:17:23;;;;;;;4.47;1.90;;;;;;;;;;5111855;27;20024;-67
2024/01/22 01:19:48;;;;;;;6.97;2.20;;;;;;;;;;5114112;27;20098;-67
2024/01/22 01:22:14;;;;;;;6.47;2.07;;;;;;;;;;5113888;27;20034;-66
2024/01/22 01:24:39;;;;;;;10.57;2.20;;;;;;;;;;5117542;27;20028;-67
2024/01/22 01:27:04;;;;;;;4.57;1.53;;;;;;;;;;5119503;27;20031;-67
2024/01/22 01:29:29;;;;;;;3.97;1.87;;;;;;;;;;5115533;27;20030;-66
2024/01/22 01:31:55;;;;;;;3.77;1.80;;;;;;;;;;5117706;27;20047;-67
2024/01/22 01:34:20;;;;;;;4.83;1.87;;;;;;;;;;5120064;27;20027;-67
2024/01/22 01:36:45;;;;;;;4.03;1.77;;;;;;;;;;5116853;27;20667;-65
2024/01/22 01:39:11;;;;;;;4.17;1.90;;;;;;;;;;5116372;27;20054;-66
2024/01/22 01:41:37;;;;;;;5.50;1.90;;;;;;;;;;5117153;27;20032;-67
2024/01/22 01:44:02;;;;;;;4.93;1.70;;;;;;;;;;5113427;28;20078;-67
2024/01/22 01:46:27;;;;;;;4.13;1.60;;;;;;;;;;5113590;27;20106;-67
2024/01/22 01:48:53;;;;;;;5.40;1.77;;;;;;;;;;5116874;27;20031;-67
2024/01/22 01:51:19;;;;;;;5.40;1.93;;;;;;;;;;5110475;27;20040;-67
2024/01/22 01:53:46;;;;;;;4.40;1.90;;;;;;;;;;5114661;27;20410;-67
2024/01/22 01:56:12;;;;;;;4.03;1.77;;;;;;;;;;5110602;27;20043;-67
2024/01/22 01:58:37;;;;;;;5.10;1.70;;;;;;;;;;5112538;27;20080;-66
2024/01/22 02:01:03;;;;;;;4.87;1.70;;;;;;;;;;5103419;28;20047;-67
2024/01/22 02:03:28;;;;;;;4.73;1.70;;;;;;;;;;5111111;28;20140;-67
2024/01/22 02:05:54;;;;;;;4.90;1.80;;;;;;;;;;5114425;28;20507;-68
2024/01/22 02:08:19;;;;;;;3.07;1.70;;;;;;;;;;5106680;28;20471;-68
2024/01/22 02:10:47;;;;;;;3.37;1.27;;;;;;;;;;5108034;27;20106;-67
2024/01/22 02:13:14;;;;;;;4.80;1.77;;;;;;;;;;5114542;27;20543;-67
2024/01/22 02:15:39;;;;;;;7.07;1.80;;;;;;;;;;5117253;27;20395;-67
2024/01/22 02:18:05;;;;;;;4.60;1.67;;;;;;;;;;5111645;27;20028;-66
2024/01/22 02:20:30;;;;;;;3.70;1.50;;;;;;;;;;5095272;28;20062;-66
2024/01/22 02:23:00;;;;;;;4.57;1.50;;;;;;;;;;5113823;27;20031;-66
2024/01/22 02:25:25;;;;;;;4.60;1.37;;;;;;;;;;5115182;27;20102;-66
2024/01/22 02:27:50;;;;;;;3.87;1.80;;;;;;;;;;5122347;27;20103;-66
2024/01/22 02:30:16;;;;;;;4.67;1.90;;;;;;;;;;5108501;27;20036;-66
2024/01/22 02:32:41;;;;;;;3.70;1.40;;;;;;;;;;5120243;27;20030;-66
2024/01/22 02:35:06;;;;;;;5.57;1.73;;;;;;;;;;5122870;27;20059;-67
2024/01/22 02:37:31;;;;;;;3.70;1.53;;;;;;;;;;5121114;27;20035;-67
2024/01/22 02:39:57;;;;;;;2.37;1.20;;;;;;;;;;5115154;27;20356;-66
2024/01/22 02:42:22;;;;;;;4.93;2.27;;;;;;;;;;5116002;27;20043;-66
2024/01/22 02:44:47;;;;;;;3.97;1.50;;;;;;;;;;5110584;28;20034;-65
2024/01/22 02:47:12;;;;;;;3.37;1.30;;;;;;;;;;5116540;27;20031;-66
2024/01/22 02:49:38;;;;;;;4.37;1.50;;;;;;;;;;5121712;27;20127;-66
2024/01/22 02:52:03;;;;;;;4.07;1.50;;;;;;;;;;5118886;27;20171;-66
2024/01/22 02:54:29;;;;;;;6.30;1.67;;;;;;;;;;5109488;27;20036;-64
2024/01/22 02:56:54;;;;;;;2.97;1.20;;;;;;;;;;5120704;27;20458;-66
2024/01/22 02:59:19;;;;;;;2.93;1.23;;;;;;;;;;5116016;27;20027;-65
2024/01/22 03:01:44;;;;;;;3.37;1.53;;;;;;;;;;5117941;27;20102;-65
2024/01/22 03:04:10;;;;;;;3.27;1.23;;;;;;;;;;5120712;27;20063;-66
2024/01/22 03:06:37;;;;;;;3.30;1.60;;;;;;;;;;5107131;27;20020;-67
2024/01/22 03:09:03;;;;;;;4.93;1.60;;;;;;;;;;5104186;27;20060;-66
2024/01/22 03:11:28;;;;;;;3.50;1.50;;;;;;;;;;5107884;27;20106;-60
2024/01/22 03:13:53;;;;;;;7.00;1.90;;;;;;;;;;5117286;27;20479;-61
2024/01/22 03:16:18;;;;;;;3.70;1.40;;;;;;;;;;5119186;27;20372;-61
2024/01/22 03:18:44;;;;;;;3.70;1.40;;;;;;;;;;5119924;27;20019;-61
2024/01/22 03:21:09;;;;;;;3.53;1.40;;;;;;;;;;5117272;27;20015;-62
2024/01/22 03:23:34;;;;;;;4.03;1.53;;;;;;;;;;5104712;28;20020;-61
2024/01/22 03:25:59;;;;;;;3.43;1.70;;;;;;;;;;5108796;27;20967;-60
2024/01/22 03:28:24;;;;;;;3.63;1.73;;;;;;;;;;5110630;27;20104;-59
2024/01/22 03:30:50;;;;;;;3.60;1.60;;;;;;;;;;5113925;27;20396;-62
2024/01/22 03:33:15;;;;;;;4.43;1.60;;;;;;;;;;5116083;27;20019;-60
2024/01/22 03:35:40;;;;;;;7.00;2.47;;;;;;;;;;5108463;27;20379;-61
2024/01/22 03:38:06;;;;;;;6.43;1.43;;;;;;;;;;5116193;27;20046;-61
2024/01/22 03:40:31;;;;;;;2.73;1.20;;;;;;;;;;5111854;27;20049;-60
2024/01/22 03:42:56;;;;;;;5.17;1.90;;;;;;;;;;5110684;27;20020;-60
2024/01/22 03:45:21;;;;;;;3.33;1.30;;;;;;;;;;5108505;27;20019;-61
2024/01/22 03:47:46;;;;;;;4.37;1.50;;;;;;;;;;5110419;27;20441;-61
2024/01/22 03:50:12;;;;;;;3.33;1.27;;;;;;;;;;5113284;27;20090;-60
2024/01/22 03:52:37;;;;;;;3.77;1.50;;;;;;;;;;5092896;28;20024;-62
2024/01/22 03:55:02;;;;;;;4.40;1.60;;;;;;;;;;5100151;28;20057;-61
2024/01/22 03:57:28;;;;;;;5.60;1.50;;;;;;;;;;5106686;28;20024;-61
2024/01/22 03:59:53;;;;;;;4.60;1.53;;;;;;;;;;5110844;27;20051;-61
2024/01/22 04:02:18;;;;;;;4.83;1.80;;;;;;;;;;5116107;27;20031;-60
2024/01/22 04:04:43;;;;;;;4.77;1.93;;;;;;;;;;5105719;27;20027;-61
2024/01/22 04:07:09;;;;;;;4.10;1.67;;;;;;;;;;5109642;27;20608;-61
2024/01/22 04:09:34;;;;;;;5.07;1.60;;;;;;;;;;5108897;27;20027;-62
2024/01/22 04:11:59;;;;;;;5.43;1.90;;;;;;;;;;5116324;27;20118;-60
2024/01/22 04:14:24;;;;;;;5.20;1.93;;;;;;;;;;5113893;27;20024;-61
2024/01/22 04:16:50;;;;;;;3.13;1.30;;;;;;;;;;5111861;27;20038;-62
2024/01/22 04:19:15;;;;;;;4.03;1.70;;;;;;;;;;5105058;27;20430;-62
2024/01/22 04:21:44;;;;;;;5.63;1.70;;;;;;;;;;5112636;27;20055;-65
2024/01/22 04:24:09;;;;;;;3.10;1.40;;;;;;;;;;5112810;27;20092;-66
2024/01/22 04:26:34;;;;;;;6.60;1.70;;;;;;;;;;5092110;27;20024;-64
2024/01/22 04:29:00;;;;;;;3.60;1.37;;;;;;;;;;5101342;27;20472;-66
2024/01/22 04:31:25;;;;;;;3.23;1.60;;;;;;;;;;5107903;28;20106;-66
2024/01/22 04:33:50;;;;;;;4.83;1.50;;;;;;;;;;5112817;27;20015;-65
2024/01/22 04:36:15;;;;;;;3.90;1.70;;;;;;;;;;5089381;27;20081;-65
2024/01/22 04:38:41;;;;;;;2.60;1.23;;;;;;;;;;5095897;27;20110;-65
2024/01/22 04:41:07;;;;;;;2.67;1.30;;;;;;;;;;5105731;27;20066;-66
2024/01/22 04:43:32;;;;;;;4.33;1.60;;;;;;;;;;5111549;27;20055;-66
2024/01/22 04:45:57;;;;;;;2.83;1.40;;;;;;;;;;5115087;27;20068;-65
2024/01/22 04:48:24;;;;;;;6.27;1.57;;;;;;;;;;5111414;27;20021;-66
2024/01/22 04:50:49;;;;;;;2.87;1.20;;;;;;;;;;5109412;27;20023;-64
2024/01/22 04:53:15;;;;;;;2.93;1.40;;;;;;;;;;5112403;27;20041;-64
2024/01/22 04:55:40;;;;;;;2.53;1.03;;;;;;;;;;5112934;27;20012;-66
2024/01/22 04:58:05;;;;;;;2.97;1.40;;;;;;;;;;5110235;27;20059;-65
2024/01/22 05:00:31;;;;;;;3.00;1.40;;;;;;;;;;5107396;27;20038;-64
2024/01/22 05:02:56;;;;;;;4.27;1.40;;;;;;;;;;5110730;27;20461;-66
2024/01/22 05:05:21;;;;;;;2.80;1.20;;;;;;;;;;5108045;27;20031;-65
2024/01/22 05:07:47;;;;;;;3.40;1.33;;;;;;;;;;5088750;28;20044;-65
2024/01/22 05:10:13;;;;;;;6.17;1.67;;;;;;;;;;5100338;27;20120;-66
2024/01/22 05:12:39;;;;;;;2.90;1.43;;;;;;;;;;5107408;27;20406;-65
2024/01/22 05:15:05;;;;;;;2.10;0.93;;;;;;;;;;5111966;27;20037;-65
2024/01/22 05:17:32;;;;;;;3.20;1.30;;;;;;;;;;5109853;27;20032;-65
2024/01/22 05:19:57;;;;;;;2.80;1.57;;;;;;;;;;5117381;27;20486;-67
2024/01/22 05:22:22;;;;;;;2.83;1.43;;;;;;;;;;5112757;27;20126;-65
2024/01/22 05:24:48;;;;;;;2.50;1.23;;;;;;;;;;5108063;27;20031;-64
2024/01/22 05:27:13;;;;;;;2.83;1.30;;;;;;;;;;5110241;27;20085;-64
2024/01/22 05:29:39;;;;;;;3.73;1.50;;;;;;;;;;5104358;27;20024;-65
2024/01/22 05:32:04;;;;;;;3.77;1.33;;;;;;;;;;5109713;27;20030;-64
2024/01/22 05:34:29;;;;;;;3.00;1.10;;;;;;;;;;5111218;27;20111;-65
2024/01/22 05:36:55;;;;;;;4.10;1.57;;;;;;;;;;5091136;27;20027;-65
2024/01/22 05:39:20;;;;;;;3.40;1.70;;;;;;;;;;5112564;27;20062;-65
2024/01/22 05:41:46;;;;;;;3.33;1.67;;;;;;;;;;5101630;27;20034;-64
2024/01/22 05:44:11;;;;;;;2.80;1.70;;;;;;;;;;5109699;27;20020;-65
2024/01/22 05:46:36;;;;;;;2.80;1.47;;;;;;;;;;5111645;28;20038;-65
2024/01/22 05:49:02;;;;;;;3.47;1.90;;;;;;;;;;5108555;27;20368;-65
2024/01/22 05:51:28;;;;;;;3.13;1.43;;;;;;;;;;5111478;27;20024;-65
2024/01/22 05:53:53;;;;;;;2.70;1.43;;;;;;;;;;5108686;27;20081;-65
2024/01/22 05:56:25;;;;;;;3.20;1.40;;;;;;;;;;5111934;27;20129;-65
2024/01/22 05:58:50;;;;;;;3.20;1.50;;;;;;;;;;5099245;28;20024;-64
2024/01/22 06:01:26;;;;;;;2.13;1.30;;;;;;;;;;5102181;28;20443;-65
2024/01/22 06:03:51;;;;;;;4.50;1.70;;;;;;;;;;5110665;27;20062;-64
2024/01/22 06:06:17;;;;;;;3.63;1.80;;;;;;;;;;5107853;28;20031;-64
2024/01/22 06:08:42;;;;;;;3.63;1.40;;;;;;;;;;5104104;28;20023;-65
2024/01/22 06:11:08;;;;;;;3.57;1.80;;;;;;;;;;5107445;28;20609;-64
2024/01/22 06:13:38;;;;;;;2.73;1.40;;;;;;;;;;5107478;28;20047;-65
2024/01/22 06:16:04;;;;;;;3.33;1.90;;;;;;;;;;5109754;28;20555;-63
2024/01/22 06:18:30;;;;;;;4.47;1.90;;;;;;;;;;5119435;28;20103;-65
2024/01/22 06:20:56;;;;;;;3.67;1.80;;;;;;;;;;5112654;28;20499;-65
2024/01/22 06:23:21;;;;;;;3.17;1.70;;;;;;;;;;5110997;28;20019;-64
2024/01/22 06:25:47;;;;;;;3.60;1.50;;;;;;;;;;5116834;28;20043;-64
2024/01/22 06:28:12;;;;;;;3.10;1.60;;;;;;;;;;5106494;28;20023;-64
2024/01/22 06:30:37;;;;;;;2.60;1.20;;;;;;;;;;5110691;28;20022;-64
2024/01/22 06:33:04;;;;;;;3.23;1.73;;;;;;;;;;5115716;28;20051;-64
2024/01/22 06:35:29;;;;;;;5.33;2.10;;;;;;;;;;5109721;28;20012;-64
2024/01/22 06:37:54;;;;;;;3.50;1.87;;;;;;;;;;5108218;28;20016;-64
2024/01/22 06:40:19;;;;;;;6.07;2.00;;;;;;;;;;5110753;28;20091;-64
2024/01/22 06:42:45;;;;;;;4.17;2.30;;;;;;;;;;5114268;28;20031;-64
2024/01/22 06:45:10;;;;;;;5.03;2.37;;;;;;;;;;5084686;28;20031;-64
2024/01/22 06:47:35;;;;;;;5.20;1.97;;;;;;;;;;5113934;28;20022;-64
2024/01/22 06:50:00;;;;;;;3.83;2.43;;;;;;;;;;5111039;28;20007;-65
2024/01/22 06:52:42;;;;;;;4.00;2.30;;;;;;;;;;5104938;28;20015;-66
2024/01/22 06:55:07;;;;;;;6.03;4.07;;;;;;;;;;5106485;28;20417;-66
2024/01/22 06:57:32;;;;;;;3.13;1.90;;;;;;;;;;5114621;27;20020;-66
2024/01/22 06:59:59;;;;;;;4.70;2.77;;;;;;;;;;5103550;27;20039;-66
2024/01/22 07:02:27;;;;;;;5.97;2.87;;;;;;;;;;5109246;27;20089;-65
2024/01/22 07:04:53;;;;;;;6.90;2.47;;;;;;;;;;5115546;27;20520;-66
2024/01/22 07:07:18;;;;;;;3.70;2.20;;;;;;;;;;5114721;27;20122;-65
2024/01/22 07:09:43;;;;;;;4.93;2.63;;;;;;;;;;5119166;27;20024;-65
2024/01/22 07:12:08;;;;;;;3.17;1.90;;;;;;;;;;5118232;27;20051;-65
2024/01/22 07:14:34;;;;;;;3.80;2.57;;;;;;;;;;5109085;27;20016;-63
2024/01/22 07:17:00;;;;;;;3.90;2.30;;;;;;;;;;5103999;27;20030;-66
2024/01/22 07:19:25;;;;;;;4.83;2.40;;;;;;;;;;5117638;27;20015;-66
2024/01/22 07:21:50;;;;;;;4.13;2.90;;;;;;;;;;5121463;27;20420;-66
2024/01/22 07:24:16;;;;;;;3.87;2.30;;;;;;;;;;5110789;27;20032;-65
2024/01/22 07:26:42;;;;;;;3.50;2.27;;;;;;;;;;5116218;27;20058;-64
2024/01/22 07:29:07;;;;;;;3.70;2.20;;;;;;;;;;5117850;27;20030;-65
2024/01/22 07:31:32;;;;;;;3.60;2.00;;;;;;;;;;5108205;27;20016;-66
2024/01/22 07:33:57;;;;;;;3.40;1.97;;;;;;;;;;5103959;28;20020;-66
2024/01/22 07:36:23;;;;;;;3.17;1.40;;;;;;;;;;5113311;27;20020;-63
2024/01/22 07:38:49;;;;;;;4.77;2.10;;;;;;;;;;5120780;27;20120;-64
2024/01/22 07:41:14;;;;;;;3.73;1.93;;;;;;;;;;5111271;27;20086;-67
2024/01/22 07:43:40;;;;;;;3.40;1.70;;;;;;;;;;5108886;27;20441;-65
2024/01/22 07:46:05;;;;;;;4.13;1.70;;;;;;;;;;5115051;27;20020;-65
2024/01/22 07:48:30;;;;;;;5.00;1.50;;;;;;;;;;5104707;27;20059;-65
2024/01/22 07:50:56;;;;;;;2.67;1.20;;;;;;;;;;5115571;27;20036;-60
2024/01/22 07:53:21;;;;;;;3.40;1.20;;;;;;;;;;5108685;27;20440;-60
2024/01/22 07:55:47;;;;;;;1.20;0.77;;;;;;;;;;5116077;27;20023;-60
2024/01/22 07:58:14;;;;;;;2.33;1.07;;;;;;;;;;5112364;27;20434;-61
2024/01/22 08:00:39;;;;;;;2.67;1.10;;;;;;;;;;5113535;27;20507;-61
2024/01/22 08:03:04;;;;;;;2.53;1.00;;;;;;;;;;5110658;27;20126;-61
2024/01/22 08:05:30;;;;;;;2.27;0.90;;;;;;;;;;5114349;27;20031;-61
2024/01/22 08:07:55;;;;;;;6.17;0.83;;;;;;;;;;5113875;27;20047;-61
2024/01/22 08:10:21;;;;;;;2.43;0.50;;;;;;;;;;5114094;27;20015;-60
2024/01/22 08:12:46;;;;;;;1.63;0.87;;;;;;;;;;5117422;27;20605;-61
2024/01/22 08:15:14;;;;;;;3.83;1.00;;;;;;;;;;5111532;27;20733;-60
2024/01/22 08:17:41;;;;;;;1.47;0.77;;;;;;;;;;5106325;27;20026;-61
2024/01/22 08:20:07;;;;;;;1.57;0.70;;;;;;;;;;5098744;28;20114;-60
2024/01/22 08:22:32;;;;;;;2.80;0.80;;;;;;;;;;5106707;27;20484;-60
2024/01/22 08:24:57;;;;;;;1.57;0.70;;;;;;;;;;5112618;27;20027;-60
2024/01/22 08:27:23;;;;;;;1.80;0.70;;;;;;;;;;5105930;27;20095;-60
2024/01/22 08:29:48;;;;;;;2.00;0.87;;;;;;;;;;5109043;27;20016;-60
2024/01/22 08:32:13;;;;;;;2.27;0.90;;;;;;;;;;5109329;27;20024;-60
2024/01/22 08:34:38;;;;;;;4.20;1.00;;;;;;;;;;5106976;27;20019;-61
2024/01/22 08:37:04;;;;;;;1.70;0.50;;;;;;;;;;5116635;27;20019;-60
2024/01/22 08:39:30;;;;;;;2.13;0.73;;;;;;;;;;5110153;27;20069;-60
2024/01/22 08:41:55;;;;;;;1.90;0.70;;;;;;;;;;5121974;27;20388;-60
2024/01/22 08:44:20;;;;;;;2.23;0.83;;;;;;;;;;5125303;27;20011;-60
2024/01/22 08:46:46;;;;;;;4.67;0.87;;;;;;;;;;5119090;27;20011;-61
2024/01/22 08:49:12;;;;;;;1.70;0.80;;;;;;;;;;5115829;27;20459;-61
2024/01/22 08:51:37;;;;;;;2.67;0.80;;;;;;;;;;5115900;27;20023;-62
2024/01/22 08:54:02;;;;;;;1.40;0.63;;;;;;;;;;5122616;27;20070;-60
2024/01/22 08:56:27;;;;;;;2.97;1.10;;;;;;;;;;5118326;27;20103;-61
2024/01/22 08:58:53;;;;;;;1.53;0.60;;;;;;;;;;5097766;27;20011;-60
2024/01/22 09:01:18;;;;;;;1.97;0.80;;;;;;;;;;5111694;27;20524;-60
2024/01/22 09:03:43;;;;;;;2.07;0.70;;;;;;;;;;5101974;28;20067;-61
2024/01/22 09:06:08;;;;;;;1.93;0.73;;;;;;;;;;5105089;27;20057;-60
2024/01/22 09:08:34;;;;;;;5.43;1.00;;;;;;;;;;5105785;27;20027;-61
2024/01/22 09:11:02;;;;;;;2.27;0.90;;;;;;;;;;5111188;27;20031;-61
2024/01/22 09:13:27;;;;;;;5.33;1.00;;;;;;;;;;5109603;27;20024;-61
2024/01/22 09:15:53;;;;;;;2.63;0.83;;;;;;;;;;5112170;27;20128;-61
2024/01/22 09:18:18;;;;;;;4.60;0.90;;;;;;;;;;5110823;27;20020;-60
2024/01/22 09:20:44;;;;;;;4.03;1.17;;;;;;;;;;5104925;27;20027;-62
2024/01/22 09:23:09;;;;;;;3.63;1.10;;;;;;;;;;5113708;27;20026;-60
2024/01/22 09:25:34;;;;;;;3.40;0.97;;;;;;;;;;5112672;27;20016;-61
2024/01/22 09:28:02;;;;;;;5.13;1.40;;;;;;;;;;5116963;27;20041;-61
2024/01/22 09:30:27;;;;;;;3.80;0.80;;;;;;;;;;5115588;27;20436;-61
2024/01/22 09:32:57;;;;;;;3.93;1.00;;;;;;;;;;5115637;27;20132;-61
2024/01/22 09:35:22;;;;;;;4.30;1.10;;;;;;;;;;5119503;27;20043;-61
2024/01/22 09:37:47;;;;;;;4.73;0.93;;;;;;;;;;5116074;27;20051;-61
2024/01/22 09:40:13;;;;;;;2.90;0.93;;;;;;;;;;5118721;27;20471;-61
2024/01/22 09:42:39;;;;;;;7.20;1.20;;;;;;;;;;5118066;27;20064;-60
2024/01/22 09:45:05;;;;;;;6.07;1.10;;;;;;;;;;5119742;27;20015;-60
2024/01/22 09:47:30;;;;;;;5.03;1.20;;;;;;;;;;5115036;27;20560;-61
2024/01/22 09:49:55;;;;;;;6.53;1.30;;;;;;;;;;5108003;27;20081;-62
2024/01/22 09:52:21;;;;;;;5.27;1.30;;;;;;;;;;5116440;27;20043;-62
2024/01/22 09:54:48;;;;;;;4.30;1.30;;;;;;;;;;5111100;28;20631;-64
2024/01/22 09:57:16;;;;;;;9.60;1.23;;;;;;;;;;5113899;27;20486;-61
2024/01/22 09:59:42;;;;;;;4.27;1.30;;;;;;;;;;5109773;28;20020;-62
2024/01/22 10:02:09;;;;;;;5.67;1.47;;;;;;;;;;5108050;28;20031;-61
2024/01/22 10:04:34;;;;;;;4.27;0.97;;;;;;;;;;5108285;28;20131;-62
2024/01/22 10:07:01;;;;;;;9.10;1.40;;;;;;;;;;5098710;28;20106;-61
2024/01/22 10:09:26;;;;;;;9.50;2.00;;;;;;;;;;5112515;28;20023;-62
2024/01/22 10:11:51;;;;;;;3.63;1.23;;;;;;;;;;5115652;28;20023;-62
2024/01/22 10:14:28;;;;;;;10.50;1.70;;;;;;;;;;5112267;28;20074;-62
2024/01/22 10:16:53;;;;;;;5.33;1.17;;;;;;;;;;5111876;28;20050;-62
2024/01/22 10:19:24;;;;;;;0.20;0.20;;;;;;;;;;5104602;28;20015;-62
2024/01/22 10:21:59;;;;;;;0.10;0.10;;;;;;;;;;5107940;28;20020;-64
2024/01/22 10:24:24;;;;;;;0.57;0.30;;;;;;;;;;5107391;28;20035;-64
2024/01/22 10:26:49;;;;;;;4.43;0.87;;;;;;;;;;5104912;28;20012;-65
2024/01/22 10:29:18;;;;;;;2.43;0.93;;;;;;;;;;5106876;28;20069;-64
2024/01/22 10:31:56;;;;;;;0.23;0.20;;;;;;;;;;5116368;27;20015;-65
2024/01/22 10:34:52;;;;;;;0.40;0.40;;;;;;;;;;5109453;27;20031;-64
2024/01/22 10:37:17;;;;;;;0.47;0.47;;;;;;;;;;5096216;27;20597;-64
2024/01/22 10:39:43;;;;;;;1.30;0.43;;;;;;;;;;5119189;27;20109;-65
2024/01/22 10:42:09;;;;;;;0.10;0.10;;;;;;;;;;5121578;27;20016;-64
2024/01/22 10:44:36;;;;;;;0.13;0.13;;;;;;;;;;5115934;27;20022;-65
2024/01/22 10:47:01;;;;;;;0.10;0.10;;;;;;;;;;5121497;27;20031;-64
2024/01/22 10:49:27;;;;;;;0.10;0.10;;;;;;;;;;5116515;27;20019;-64
2024/01/22 10:51:53;;;;;;;2.13;1.03;;;;;;;;;;5112763;27;20019;-65
2024/01/22 10:54:18;;;;;;;6.23;0.93;;;;;;;;;;5118807;27;20026;-64
2024/01/22 10:56:46;;;;;;;0.20;0.20;;;;;;;;;;5113877;27;20131;-63
2024/01/22 10:59:14;;;;;;;0.27;0.27;;;;;;;;;;5119544;27;20024;-63
2024/01/22 11:01:40;;;;;;;0.20;0.20;;;;;;;;;;5114567;27;20008;-64
2024/01/22 11:04:07;;;;;;;0.20;0.20;;;;;;;;;;5110598;27;20056;-64
2024/01/22 11:06:35;;;;;;;0.10;0.10;;;;;;;;;;5102202;27;20020;-63
2024/01/22 11:09:01;;;;;;;0.27;0.27;;;;;;;;;;5107518;27;20044;-64
2024/01/22 11:11:27;;;;;;;0.20;0.20;;;;;;;;;;5117001;27;20033;-64
2024/01/22 11:13:55;;;;;;;0.10;0.10;;;;;;;;;;5120202;27;20076;-63
2024/01/22 11:16:21;;;;;;;0.30;0.30;;;;;;;;;;5110667;27;20499;-63
2024/01/22 11:19:12;;;;;;;0.20;0.20;;;;;;;;;;5109192;27;20019;-64
2024/01/22 11:21:38;;;;;;;0.20;0.20;;;;;;;;;;5113260;27;20539;-65
2024/01/22 11:24:04;;;;;;;0.27;0.27;;;;;;;;;;5117308;27;20027;-64
2024/01/22 11:26:29;;;;;;;0.10;0.10;;;;;;;;;;5121520;27;20016;-64
2024/01/22 11:29:13;;;;;;;0.20;0.20;;;;;;;;;;5114017;27;20020;-65
2024/01/22 11:31:39;;;;;;;0.13;0.13;;;;;;;;;;5111895;28;20110;-62
2024/01/22 11:34:04;;;;;;;12.00;0.50;;;;;;;;;;5113807;27;20043;-62
2024/01/22 11:36:49;;;;;;;0.63;0.53;;;;;;;;;;5119257;27;20007;-63
2024/01/22 11:39:33;;;;;;;1.73;1.00;;;;;;;;;;5113270;27;20507;-62
2024/01/22 11:42:25;;;;;;;0.23;0.23;;;;;;;;;;5116616;27;20371;-62
2024/01/22 11:44:50;;;;;;;0.77;0.77;;;;;;;;;;5116376;27;20466;-64
2024/01/22 11:47:20;;;;;;;0.20;0.20;;;;;;;;;;5115834;27;20027;-63
2024/01/22 11:49:45;;;;;;;0.23;0.23;;;;;;;;;;5111854;27;20012;-63
2024/01/22 11:52:11;;;;;;;0.33;0.33;;;;;;;;;;5117316;27;20065;-63
2024/01/22 11:54:36;;;;;;;0.20;0.20;;;;;;;;;;5107704;28;20087;-63
2024/01/22 11:57:02;;;;;;;0.10;0.10;;;;;;;;;;5118619;27;20043;-62
2024/01/22 11:59:28;;;;;;;0.90;0.40;;;;;;;;;;5115509;27;20389;-63
2024/01/22 12:02:04;;;;;;;0.10;0.10;;;;;;;;;;5123589;27;20043;-63
2024/01/22 12:04:30;;;;;;;0.93;0.63;;;;;;;;;;5121815;27;20050;-64
2024/01/22 12:06:55;;;;;;;1.43;1.03;;;;;;;;;;5121393;27;20027;-63
2024/01/22 12:09:20;;;;;;;2.47;1.07;;;;;;;;;;5121465;27;20011;-64
2024/01/22 12:11:53;;;;;;;0.70;0.70;;;;;;;;;;5116505;27;20032;-63
2024/01/22 12:14:18;;;;;;;0.20;0.20;;;;;;;;;;5119649;27;20027;-63
2024/01/22 12:16:43;;;;;;;0.10;0.10;;;;;;;;;;5117456;27;20011;-62
2024/01/22 12:19:11;;;;;;;0.67;0.40;;;;;;;;;;5117141;27;20051;-63
2024/01/22 12:21:40;;;;;;;0.10;0.10;;;;;;;;;;5114473;27;20027;-63
2024/01/22 12:24:13;;;;;;;1.33;0.50;;;;;;;;;;5115423;27;20098;-63
2024/01/22 12:26:40;;;;;;;2.33;1.70;;;;;;;;;;5113796;27;20487;-63
2024/01/22 12:29:05;;;;;;;0.47;0.40;;;;;;;;;;5113065;27;20012;-63
2024/01/22 12:31:30;;;;;;;0.10;0.10;;;;;;;;;;5114530;27;20014;-63
2024/01/22 12:34:08;;;;;;;0.10;0.10;;;;;;;;;;5111884;27;20026;-63
2024/01/22 12:36:33;;;;;;;0.53;0.40;;;;;;;;;;5108574;27;20349;-63
2024/01/22 12:39:02;;;;;;;0.10;0.10;;;;;;;;;;5104395;27;20023;-63
2024/01/22 12:41:28;;;;;;;0.60;0.50;;;;;;;;;;5110982;28;21332;-62
2024/01/22 12:43:59;;;;;;;0.10;0.10;;;;;;;;;;5114316;27;20015;-65
2024/01/22 12:46:25;;;;;;;0.95;0.88;;;;;;;;;;5113167;27;20109;-65
2024/01/22 12:48:53;;;;;;;1.60;1.17;;;;;;;;;;5114601;27;20040;-65
2024/01/22 12:51:23;;;;;;;4.33;2.17;;;;;;;;;;5111651;27;20032;-64
2024/01/22 12:53:49;;;;;;;0.60;0.50;;;;;;;;;;5108131;27;20447;-65
2024/01/22 12:56:15;;;;;;;1.17;1.07;;;;;;;;;;5115882;27;20046;-64
2024/01/22 12:58:41;;;;;;;0.40;0.40;;;;;;;;;;5108162;27;20430;-65
2024/01/22 13:01:06;;;;;;;0.20;0.20;;;;;;;;;;5115281;27;20238;-64
2024/01/22 13:03:32;;;;;;;1.30;0.90;;;;;;;;;;5113514;27;20111;-65
2024/01/22 13:05:57;;;;;;;1.57;0.53;;;;;;;;;;5115314;27;20027;-65
2024/01/22 13:08:22;;;;;;;0.80;0.40;;;;;;;;;;5101531;27;20419;-64
2024/01/22 13:10:48;;;;;;;0.47;0.47;;;;;;;;;;5109262;27;20027;-65
2024/01/22 13:13:14;;;;;;;0.10;0.10;;;;;;;;;;5117104;27;20024;-64
2024/01/22 13:15:40;;;;;;;0.20;0.20;;;;;;;;;;5114713;27;20391;-65
2024/01/22 13:18:06;;;;;;;3.80;0.93;;;;;;;;;;5112843;27;20102;-65
2024/01/22 13:20:31;;;;;;;1.07;0.77;;;;;;;;;;5118471;27;20436;-65
2024/01/22 13:22:57;;;;;;;0.67;0.60;;;;;;;;;;5115369;27;20027;-65
2024/01/22 13:25:22;;;;;;;1.70;0.30;;;;;;;;;;5106480;27;20026;-65
2024/01/22 13:27:51;;;;;;;0.70;0.50;;;;;;;;;;5113110;27;20023;-65
2024/01/22 13:30:19;;;;;;;2.93;0.63;;;;;;;;;;5118261;27;20021;-64
2024/01/22 13:32:45;;;;;;;0.20;0.20;;;;;;;;;;5103649;27;20491;-64
2024/01/22 13:35:11;;;;;;;13.40;2.40;;;;;;;;;;5110754;27;20069;-65
2024/01/22 13:37:38;;;;;;;15.27;2.90;;;;;;;;;;5113467;27;20031;-64
2024/01/22 13:40:04;;;;;;;19.07;2.20;;;;;;;;;;5105541;27;20538;-64
2024/01/22 13:42:29;;;;;;;19.37;3.13;;;;;;;;;;5110205;27;20111;-65
2024/01/22 13:44:54;;;;;;;14.97;2.77;;;;;;;;;;5113569;27;20023;-65
2024/01/22 13:47:20;;;;;;;14.20;2.57;;;;;;;;;;5112285;28;20015;-65
2024/01/22 13:49:45;;;;;;;17.40;2.27;;;;;;;;;;5109835;28;20018;-64
2024/01/22 13:52:11;;;;;;;13.50;3.07;;;;;;;;;;5096996;28;20053;-64
2024/01/22 13:54:36;;;;;;;15.77;2.50;;;;;;;;;;5102584;27;20352;-64
2024/01/22 13:57:01;;;;;;;12.67;2.27;;;;;;;;;;5100282;27;20019;-64
2024/01/22 13:59:27;;;;;;;10.47;2.23;;;;;;;;;;5119498;27;20042;-64
2024/01/22 14:01:52;;;;;;;16.10;2.50;;;;;;;;;;5111564;28;20019;-64
2024/01/22 14:04:17;;;;;;;10.83;1.97;;;;;;;;;;5113816;27;20043;-65
2024/01/22 14:06:45;;;;;;;13.93;2.53;;;;;;;;;;5111782;28;20072;-64
2024/01/22 14:09:11;;;;;;;19.77;3.27;;;;;;;;;;5111265;28;20468;-65
2024/01/22 14:11:36;;;;;;;18.60;3.00;;;;;;;;;;5110006;28;20054;-66
2024/01/22 14:14:02;;;;;;;12.40;2.07;;;;;;;;;;5103300;28;20133;-65
2024/01/22 14:16:27;;;;;;;14.40;2.63;;;;;;;;;;5115868;28;20041;-64
2024/01/22 14:18:53;;;;;;;12.87;1.93;;;;;;;;;;5115042;28;20050;-65
2024/01/22 14:21:18;;;;;;;17.07;2.87;;;;;;;;;;5116496;28;20122;-65
2024/01/22 14:23:43;;;;;;;20.63;2.60;;;;;;;;;;5118121;28;20023;-65
2024/01/22 14:26:09;;;;;;;14.10;1.70;;;;;;;;;;5117586;28;20031;-64
2024/01/22 14:28:34;;;;;;;12.17;2.13;;;;;;;;;;5110559;28;20020;-64
2024/01/22 14:31:01;;;;;;;11.97;2.10;;;;;;;;;;5104730;28;20046;-64
2024/01/22 14:33:26;;;;;;;8.03;2.00;;;;;;;;;;5117262;28;20039;-64
2024/01/22 14:35:53;;;;;;;15.93;2.07;;;;;;;;;;5113390;28;20047;-65
2024/01/22 14:38:18;;;;;;;18.53;2.50;;;;;;;;;;5118100;28;20100;-65